Time;durP1;ratioP1;P1;durP2;ratioP2;P2;SDS_P1;SDS_P2;PMS_P1;PMS_P2;Temp;Humidity;BMP_temperature;BMP_pressure;BME280_temperature;BME280_humidity;BME280_pressure;Samples;Min_cycle;Max_cycle;Signal;HPM_P1;HPM_P2
2021/11/01 00:02:20;;;;;;;53.50;27.83;;;;;;;;;;5073039;28;20288;-70
2021/11/01 00:04:47;;;;;;;54.17;29.30;;;;;;;;;;5073051;28;20759;-73
2021/11/01 00:07:14;;;;;;;54.27;30.40;;;;;;;;;;5074591;28;20295;-72
2021/11/01 00:09:40;;;;;;;57.67;30.10;;;;;;;;;;5072916;28;20225;-71
2021/11/01 00:12:07;;;;;;;60.17;29.87;;;;;;;;;;5071233;28;20368;-70
2021/11/01 00:14:33;;;;;;;54.50;28.97;;;;;;;;;;5070393;28;20227;-70
2021/11/01 00:17:00;;;;;;;62.53;30.50;;;;;;;;;;5054883;28;20201;-70
2021/11/01 00:19:26;;;;;;;53.30;29.27;;;;;;;;;;5072051;28;20206;-71
2021/11/01 00:21:53;;;;;;;61.77;30.07;;;;;;;;;;5072470;28;20236;-70
2021/11/01 00:24:20;;;;;;;58.53;30.23;;;;;;;;;;5072380;28;20320;-71
2021/11/01 00:26:46;;;;;;;54.83;30.10;;;;;;;;;;5072355;28;20220;-71
2021/11/01 00:29:13;;;;;;;54.07;28.47;;;;;;;;;;5071396;28;20232;-71
2021/11/01 00:31:39;;;;;;;58.53;29.97;;;;;;;;;;5072111;28;20296;-71
2021/11/01 00:34:05;;;;;;;56.13;29.47;;;;;;;;;;5072196;28;20260;-71
2021/11/01 00:36:32;;;;;;;51.83;29.37;;;;;;;;;;5074088;28;20201;-71
2021/11/01 00:38:58;;;;;;;57.20;29.07;;;;;;;;;;5095255;28;20220;-70
2021/11/01 00:41:25;;;;;;;56.73;30.53;;;;;;;;;;5097798;28;20197;-69
2021/11/01 00:43:51;;;;;;;61.37;31.90;;;;;;;;;;5097719;28;20221;-71
2021/11/01 00:46:17;;;;;;;52.20;29.67;;;;;;;;;;5086577;28;20550;-71
2021/11/01 00:48:44;;;;;;;55.00;29.47;;;;;;;;;;5080080;28;20201;-71
2021/11/01 00:51:10;;;;;;;52.13;29.00;;;;;;;;;;5073664;28;20229;-71
2021/11/01 00:53:44;;;;;;;55.23;29.73;;;;;;;;;;5072174;28;20225;-70
2021/11/01 00:56:10;;;;;;;54.03;29.60;;;;;;;;;;5071950;28;20224;-71
2021/11/01 00:58:37;;;;;;;54.97;29.67;;;;;;;;;;5071903;28;20209;-70
2021/11/01 01:35:03;;;;;;;56.23;28.93;;;;;;;-143.37;100.00;65745.06;5109507;27;20575;-70
2021/11/01 01:37:30;;;;;;;61.37;30.83;;;;;;;-143.37;100.00;65745.06;5108305;28;20207;-71
2021/11/01 01:39:56;;;;;;;54.50;29.50;;;;;;;-143.37;100.00;65745.06;5108822;28;20276;-71
2021/11/01 01:42:23;;;;;;;57.40;31.13;;;;;;;-143.37;100.00;65745.06;5108272;28;20200;-71
2021/11/01 01:44:49;;;;;;;58.73;31.33;;;;;;;-143.37;100.00;65745.06;5108054;28;20251;-70
2021/11/01 01:47:16;;;;;;;49.43;28.50;;;;;;;-143.37;100.00;65745.06;5107886;28;20192;-72
2021/11/01 01:49:43;;;;;;;56.37;29.70;;;;;;;-143.37;100.00;65745.06;5090168;28;20704;-70
2021/11/01 01:52:10;;;;;;;55.87;27.87;;;;;;;-143.37;100.00;65745.06;5108774;28;20247;-70
2021/11/01 01:54:37;;;;;;;53.70;29.33;;;;;;;-143.37;100.00;65745.06;5107498;28;20276;-70
2021/11/01 01:57:03;;;;;;;55.77;30.60;;;;;;;-143.37;100.00;65745.06;5108927;28;20200;-70
2021/11/01 01:59:30;;;;;;;55.13;30.17;;;;;;;-143.37;100.00;65745.06;5108230;28;20208;-70
2021/11/01 02:01:57;;;;;;;57.37;30.93;;;;;;;-143.37;100.00;65745.06;5107605;28;20204;-70
2021/11/01 02:04:27;;;;;;;52.50;29.97;;;;;;;-143.37;100.00;65745.06;5107297;28;20257;-70
2021/11/01 02:07:29;;;;;;;57.10;29.33;;;;;;;-143.37;100.00;65745.06;5108895;28;20291;-69
2021/11/01 02:10:12;;;;;;;50.87;29.63;;;;;;;-143.37;100.00;65745.06;5106732;28;20664;-69
2021/11/01 02:12:41;;;;;;;55.00;28.77;;;;;;;-143.37;100.00;65745.06;5108680;28;20243;-69
2021/11/01 02:15:08;;;;;;;52.73;28.80;;;;;;;-143.37;100.00;65745.06;5108645;28;20238;-69
2021/11/01 02:17:36;;;;;;;53.93;29.40;;;;;;;-143.37;100.00;65745.06;5108727;28;20311;-69
2021/11/01 02:20:14;;;;;;;51.90;30.07;;;;;;;-143.37;100.00;65745.06;5107979;28;20291;-69
2021/11/01 02:23:03;;;;;;;49.53;28.37;;;;;;;-143.37;100.00;65745.06;5108392;28;20265;-71
2021/11/01 02:25:40;;;;;;;59.90;30.53;;;;;;;-143.37;100.00;65745.06;5107932;28;20249;-69
2021/11/01 02:28:10;;;;;;;52.50;29.80;;;;;;;-143.37;100.00;65745.06;5107056;28;20211;-72
2021/11/01 02:30:38;;;;;;;57.07;30.47;;;;;;;-143.37;100.00;65745.06;5107563;28;20203;-72
2021/11/01 02:33:09;;;;;;;51.23;28.57;;;;;;;-143.37;100.00;65745.06;5107991;28;20232;-72
2021/11/01 02:35:36;;;;;;;56.00;29.97;;;;;;;-143.37;100.00;65745.06;5106856;28;20615;-71
2021/11/01 02:38:05;;;;;;;54.33;29.00;;;;;;;-143.37;100.00;65745.06;5107004;28;20204;-70
2021/11/01 02:40:32;;;;;;;53.97;28.33;;;;;;;-143.37;100.00;65745.06;5107554;28;20236;-72
2021/11/01 02:42:59;;;;;;;58.80;30.70;;;;;;;-143.37;100.00;65745.06;5106825;28;20204;-73
2021/11/01 02:45:26;;;;;;;53.67;28.20;;;;;;;-143.37;100.00;65745.06;5099938;28;20213;-73
2021/11/01 02:47:53;;;;;;;52.00;29.40;;;;;;;-143.37;100.00;65745.06;5078009;28;20201;-73
2021/11/01 02:50:20;;;;;;;55.47;28.67;;;;;;;-143.37;100.00;65745.06;5073078;28;20220;-73
2021/11/01 02:52:47;;;;;;;54.23;29.87;;;;;;;-143.37;100.00;65745.06;5073989;28;20284;-72
2021/11/01 02:55:15;;;;;;;52.63;28.17;;;;;;;-143.37;100.00;65745.06;5073767;28;20320;-73
2021/11/01 02:57:44;;;;;;;51.30;28.37;;;;;;;-143.37;100.00;65745.06;5076303;28;20205;-72
2021/11/01 03:00:13;;;;;;;50.60;27.87;;;;;;;-143.37;100.00;65745.06;5093383;28;20576;-72
2021/11/01 03:02:39;;;;;;;52.63;28.53;;;;;;;-143.37;100.00;65745.06;5092708;28;20287;-72
2021/11/01 03:05:11;;;;;;;47.63;27.57;;;;;;;-143.37;100.00;65745.06;5094125;28;20208;-72
2021/11/01 03:07:39;;;;;;;51.03;28.20;;;;;;;-143.37;100.00;65745.06;5094200;28;20295;-72
2021/11/01 03:10:07;;;;;;;50.43;28.13;;;;;;;-143.37;100.00;65745.06;5093736;28;20201;-73
2021/11/01 03:12:37;;;;;;;58.53;29.47;;;;;;;-143.37;100.00;65745.06;5092753;28;20291;-73
2021/11/01 03:15:06;;;;;;;50.43;27.40;;;;;;;-143.37;100.00;65745.06;5093668;28;20231;-72
2021/11/01 03:17:38;;;;;;;49.83;26.17;;;;;;;-143.37;100.00;65745.06;5092876;28;20251;-73
2021/11/01 03:20:08;;;;;;;51.53;28.60;;;;;;;-143.37;100.00;65745.06;5093047;28;20639;-73
2021/11/01 03:22:47;;;;;;;43.93;25.73;;;;;;;-143.37;100.00;65745.06;5093918;28;20620;-72
2021/11/01 03:25:27;;;;;;;47.97;27.73;;;;;;;-143.37;100.00;65745.06;5094011;28;20283;-72
2021/11/01 03:27:59;;;;;;;55.83;29.70;;;;;;;-143.37;100.00;65745.06;5096837;28;20303;-72
2021/11/01 03:30:26;;;;;;;53.87;27.30;;;;;;;-143.37;100.00;65745.06;5094342;28;20303;-72
2021/11/01 03:32:53;;;;;;;54.97;28.47;;;;;;;-143.37;100.00;65745.06;5093396;28;20209;-72
2021/11/01 03:35:21;;;;;;;48.57;27.03;;;;;;;-143.37;100.00;65745.06;5094053;28;20316;-71
2021/11/01 03:37:51;;;;;;;57.87;27.30;;;;;;;-143.37;100.00;65745.06;5092253;28;20752;-71
2021/11/01 03:40:20;;;;;;;49.37;26.13;;;;;;;-143.37;100.00;65745.06;5092717;28;20208;-71
2021/11/01 03:42:48;;;;;;;51.37;28.57;;;;;;;-143.37;100.00;65745.06;5093521;28;20212;-72
2021/11/01 03:45:15;;;;;;;53.90;29.40;;;;;;;-143.37;100.00;65745.06;5092859;28;20207;-72
2021/11/01 03:47:44;;;;;;;53.30;27.70;;;;;;;-143.37;100.00;65745.06;5078452;28;20200;-72
2021/11/01 03:52:54;;;;;;;48.70;27.47;;;;;;;-143.37;100.00;65745.06;5072640;28;20228;-73
2021/11/01 03:55:23;;;;;;;52.60;28.20;;;;;;;-143.37;100.00;65745.06;5072933;28;20249;-72
2021/11/01 03:57:51;;;;;;;45.57;25.40;;;;;;;-143.37;100.00;65745.06;5074136;28;20292;-72
2021/11/01 04:00:20;;;;;;;51.50;28.37;;;;;;;-143.37;100.00;65745.06;5092251;28;20247;-71
2021/11/01 04:02:47;;;;;;;48.93;28.07;;;;;;;-143.37;100.00;65745.06;5092899;28;20216;-71
2021/11/01 04:05:13;;;;;;;50.93;27.73;;;;;;;-143.37;100.00;65745.06;5092902;28;20196;-72
2021/11/01 04:07:40;;;;;;;51.77;27.47;;;;;;;-143.37;100.00;65745.06;5092901;28;20219;-71
2021/11/01 04:10:08;;;;;;;51.40;27.57;;;;;;;-143.37;100.00;65745.06;5092410;28;20300;-71
2021/11/01 04:12:36;;;;;;;48.50;26.97;;;;;;;-143.37;100.00;65745.06;5091521;28;20247;-71
2021/11/01 04:15:13;;;;;;;50.03;27.37;;;;;;;-143.37;100.00;65745.06;5091529;28;20224;-71
2021/11/01 04:17:46;;;;;;;52.73;26.77;;;;;;;-143.37;100.00;65745.06;5091435;28;20248;-70
2021/11/01 04:22:52;;;;;;;48.53;26.33;;;;;;;-143.37;100.00;65745.06;5092574;28;20232;-71
2021/11/01 04:25:21;;;;;;;47.23;25.30;;;;;;;-143.37;100.00;65745.06;5093572;28;20696;-72
2021/11/01 04:27:48;;;;;;;48.40;26.00;;;;;;;-143.37;100.00;65745.06;5094827;28;20761;-71
2021/11/01 04:30:15;;;;;;;56.17;29.53;;;;;;;-143.37;100.00;65745.06;5093190;28;20201;-71
2021/11/01 04:32:43;;;;;;;52.70;28.17;;;;;;;-143.37;100.00;65745.06;5093087;28;20288;-72
2021/11/01 04:35:25;;;;;;;54.77;27.90;;;;;;;-143.37;100.00;65745.06;5092598;28;20225;-72
2021/11/01 04:38:01;;;;;;;51.07;26.13;;;;;;;-143.37;100.00;65745.06;5092720;28;20217;-72
2021/11/01 04:54:03;;;;;;;48.63;26.17;;;;;;;-143.37;100.00;65745.06;5071853;28;20256;-71
2021/11/01 04:56:30;;;;;;;46.30;26.07;;;;;;;-143.37;100.00;65745.06;5072055;28;20291;-71
2021/11/01 04:58:57;;;;;;;52.07;26.70;;;;;;;-143.37;100.00;65745.06;5084653;28;20299;-71
2021/11/01 05:01:34;;;;;;;49.73;26.73;;;;;;;-143.37;100.00;65745.06;5091865;28;20295;-72
2021/11/01 05:04:06;;;;;;;51.17;25.83;;;;;;;-143.37;100.00;65745.06;5093754;28;20758;-71
2021/11/01 05:06:33;;;;;;;48.77;25.43;;;;;;;-143.37;100.00;65745.06;5094631;28;20307;-71
2021/11/01 05:09:23;;;;;;;48.87;27.23;;;;;;;-143.37;100.00;65745.06;5091571;28;20299;-71
2021/11/01 05:14:22;;;;;;;45.53;25.77;;;;;;;-143.37;100.00;65745.06;5091535;28;20725;-70
2021/11/01 05:24:40;;;;;;;47.83;25.17;;;;;;;-143.37;100.00;65745.06;5091424;28;20230;-71
2021/11/01 05:27:23;;;;;;;46.50;26.57;;;;;;;-143.37;100.00;65745.06;5071571;28;20215;-71
2021/11/01 05:29:52;;;;;;;48.00;26.43;;;;;;;-143.37;100.00;65745.06;5070732;28;20223;-71
2021/11/01 05:32:23;;;;;;;45.97;25.93;;;;;;;-143.37;100.00;65745.06;5071331;28;20200;-70
2021/11/01 05:34:50;;;;;;;45.53;24.90;;;;;;;-143.37;100.00;65745.06;5071152;28;20382;-70
2021/11/01 05:37:17;;;;;;;40.63;24.13;;;;;;;-143.37;100.00;65745.06;5074021;28;20307;-70
2021/11/01 05:39:44;;;;;;;45.17;25.50;;;;;;;-143.37;100.00;65745.06;5077057;28;20227;-71
2021/11/01 05:42:10;;;;;;;49.37;26.87;;;;;;;-143.37;100.00;65745.06;5077211;28;20292;-71
2021/11/01 05:44:37;;;;;;;49.67;26.40;;;;;;;-143.37;100.00;65745.06;5070340;28;20264;-70
2021/11/01 05:47:05;;;;;;;47.67;26.80;;;;;;;-143.37;100.00;65745.06;5080723;28;20203;-70
2021/11/01 05:49:36;;;;;;;45.43;25.57;;;;;;;-143.37;100.00;65745.06;5090950;28;20576;-70
2021/11/01 05:52:05;;;;;;;45.87;25.50;;;;;;;-143.37;100.00;65745.06;5091719;28;20211;-71
2021/11/01 05:54:32;;;;;;;44.23;25.33;;;;;;;-143.37;100.00;65745.06;5090574;28;20273;-71
2021/11/01 05:57:18;;;;;;;49.77;26.53;;;;;;;-143.37;100.00;65745.06;5091433;28;20209;-70
2021/11/01 06:00:04;;;;;;;52.97;26.93;;;;;;;-143.37;100.00;65745.06;5089775;28;20219;-71
2021/11/01 06:02:43;;;;;;;47.80;27.30;;;;;;;-143.37;100.00;65745.06;5091433;28;20208;-71
2021/11/01 06:13:32;;;;;;;47.07;26.50;;;;;;;-143.37;100.00;65745.06;5092079;28;20224;-71
2021/11/01 06:16:00;;;;;;;47.40;26.97;;;;;;;-143.37;100.00;65745.06;5102465;28;20293;-71
2021/11/01 06:18:35;;;;;;;47.47;26.77;;;;;;;-143.37;100.00;65745.06;5108764;28;20230;-71
2021/11/01 06:21:06;;;;;;;45.80;25.07;;;;;;;-143.37;100.00;65745.06;5099070;28;20544;-69
2021/11/01 06:23:34;;;;;;;44.47;23.73;;;;;;;-143.37;100.00;65745.06;5095682;28;20228;-70
2021/11/01 06:26:03;;;;;;;46.70;26.10;;;;;;;-143.37;100.00;65745.06;5093073;28;20209;-70
2021/11/01 06:28:30;;;;;;;45.60;26.40;;;;;;;-143.37;100.00;65745.06;5092084;28;20229;-68
2021/11/01 06:30:59;;;;;;;44.80;23.57;;;;;;;-143.37;100.00;65745.06;5093176;28;20292;-71
2021/11/01 06:45:57;;;;;;;43.67;23.40;;;;;;;-143.37;100.00;65745.06;5091236;28;20220;-70
2021/11/01 06:56:29;;;;;;;40.63;22.97;;;;;;;-143.37;100.00;65745.06;5073317;28;20197;-69
2021/11/01 07:15:16;;;;;;;44.10;24.03;;;;;;;-143.37;100.00;65745.06;5093307;28;20740;-70
2021/11/01 07:17:47;;;;;;;41.33;23.00;;;;;;;-143.37;100.00;65745.06;5093246;28;20355;-70
2021/11/01 07:20:21;;;;;;;44.10;24.00;;;;;;;-143.37;100.00;65745.06;5092766;28;20616;-71
2021/11/01 08:28:15;;;;;;;42.13;22.83;;;;;;;-143.37;100.00;65745.06;5091880;28;20291;-69
2021/11/01 09:20:16;;;;;;;41.67;23.43;;;;;;;-143.37;100.00;65745.06;5069189;28;20307;-68
2021/11/01 09:28:24;;;;;;;44.83;23.57;;;;;;;-143.37;100.00;65745.06;5091030;28;20248;-69
2021/11/01 09:36:35;;;;;;;42.67;22.93;;;;;;;-143.37;100.00;65745.06;5089486;28;20288;-68
2021/11/01 09:39:30;;;;;;;37.67;22.37;;;;;;;-143.37;100.00;65745.06;5075635;28;20208;-70
2021/11/01 09:42:00;;;;;;;37.87;21.97;;;;;;;-143.37;100.00;65745.06;5092479;28;20308;-68
2021/11/01 09:44:31;;;;;;;40.67;22.63;;;;;;;-143.37;100.00;65745.06;5091472;28;20285;-68
2021/11/01 09:47:02;;;;;;;38.80;22.70;;;;;;;-143.37;100.00;65745.06;5088163;28;20712;-68
2021/11/01 09:49:30;;;;;;;39.53;21.97;;;;;;;-143.37;100.00;65745.06;5089798;28;20212;-68
2021/11/01 09:52:00;;;;;;;42.33;23.47;;;;;;;-143.37;100.00;65745.06;5091591;28;20236;-69
2021/11/01 09:54:30;;;;;;;43.10;24.43;;;;;;;-143.37;100.00;65745.06;5091435;28;20228;-68
2021/11/01 09:57:08;;;;;;;48.07;25.53;;;;;;;-143.37;100.00;65745.06;5095942;28;20661;-69
2021/11/01 09:59:40;;;;;;;41.57;22.83;;;;;;;-143.37;100.00;65745.06;5093919;28;20269;-68
2021/11/01 10:02:09;;;;;;;43.80;24.20;;;;;;;-143.37;100.00;65745.06;5094407;28;20232;-69
2021/11/01 10:04:37;;;;;;;43.40;22.47;;;;;;;-143.37;100.00;65745.06;5093837;28;20665;-69
2021/11/01 10:07:34;;;;;;;40.90;23.33;;;;;;;-143.37;100.00;65745.06;5095100;28;20314;-69
2021/11/01 10:10:13;;;;;;;43.83;22.23;;;;;;;-143.37;100.00;65745.06;5094899;28;20288;-69
2021/11/01 10:12:42;;;;;;;35.70;22.47;;;;;;;-143.37;100.00;65745.06;5095823;28;20202;-69
2021/11/01 10:18:09;;;;;;;40.83;22.60;;;;;;;-143.37;100.00;65745.06;5095202;28;20267;-68
2021/11/01 10:20:46;;;;;;;44.50;22.43;;;;;;;-143.37;100.00;65745.06;5094232;28;20295;-68
2021/11/01 10:23:18;;;;;;;46.90;24.23;;;;;;;-143.37;100.00;65745.06;5093563;28;20234;-69
2021/11/01 10:25:44;;;;;;;42.00;23.17;;;;;;;-143.37;100.00;65745.06;5094726;28;20220;-67
2021/11/01 10:28:12;;;;;;;40.67;23.67;;;;;;;-143.37;100.00;65745.06;5094526;28;20677;-69
2021/11/01 10:30:39;;;;;;;42.27;23.87;;;;;;;-143.37;100.00;65745.06;5093637;28;20200;-69
2021/11/01 10:33:09;;;;;;;41.73;23.30;;;;;;;-143.37;100.00;65745.06;5094238;28;20236;-69
2021/11/01 10:35:43;;;;;;;41.37;24.90;;;;;;;-143.37;100.00;65745.06;5094512;28;20207;-69
2021/11/01 10:41:22;;;;;;;50.53;24.03;;;;;;;-143.37;100.00;65745.06;5093709;28;20736;-68
2021/11/01 10:44:20;;;;;;;40.90;24.37;;;;;;;-143.37;100.00;65745.06;5094126;28;20226;-67
2021/11/01 11:11:57;;;;;;;35.93;21.57;;;;;;;-143.37;100.00;65745.06;5093275;28;20204;-67
2021/11/01 11:14:30;;;;;;;37.43;22.90;;;;;;;-143.37;100.00;65745.06;5092694;28;20228;-69
2021/11/01 11:27:30;;;;;;;36.97;21.70;;;;;;;-143.37;100.00;65745.06;5093259;28;20228;-69
2021/11/01 11:49:34;;;;;;;34.30;21.20;;;;;;;-143.37;100.00;65745.06;5076622;28;20587;-70
2021/11/01 11:52:04;;;;;;;32.47;20.20;;;;;;;-143.37;100.00;65745.06;5074363;28;20279;-70
2021/11/01 11:54:35;;;;;;;34.23;19.43;;;;;;;-143.37;100.00;65745.06;5073853;28;20311;-70
2021/11/01 11:57:04;;;;;;;37.77;21.10;;;;;;;-143.37;100.00;65745.06;5073156;28;20205;-68
2021/11/01 11:59:34;;;;;;;34.90;21.63;;;;;;;-143.37;100.00;65745.06;5089717;28;20265;-70
2021/11/01 12:02:09;;;;;;;37.90;21.67;;;;;;;-143.37;100.00;65745.06;5091918;28;20240;-71
2021/11/01 12:04:43;;;;;;;33.07;20.53;;;;;;;-143.37;100.00;65745.06;5092355;28;20224;-70
2021/11/01 12:07:13;;;;;;;37.67;22.43;;;;;;;-143.37;100.00;65745.06;5092315;28;20270;-70
2021/11/01 12:10:00;;;;;;;34.23;20.20;;;;;;;-143.37;100.00;65745.06;5075002;28;20237;-69
2021/11/01 12:17:56;;;;;;;35.50;21.60;;;;;;;-143.37;100.00;65745.06;5091932;28;20625;-70
2021/11/01 12:20:23;;;;;;;38.13;21.73;;;;;;;-143.37;100.00;65745.06;5074587;28;20254;-69
2021/11/01 12:22:51;;;;;;;40.93;22.17;;;;;;;-143.37;100.00;65745.06;5091075;28;20295;-69
2021/11/01 12:25:21;;;;;;;39.37;23.37;;;;;;;-143.37;100.00;65745.06;5091414;28;20204;-69
2021/11/01 12:27:59;;;;;;;36.93;21.97;;;;;;;-143.37;100.00;65745.06;5091697;28;20230;-71
2021/11/01 12:30:38;;;;;;;40.40;21.67;;;;;;;-143.37;100.00;65745.06;5092273;28;20219;-68
2021/11/01 12:33:06;;;;;;;38.80;22.80;;;;;;;-143.37;100.00;65745.06;5092161;28;20297;-69
2021/11/01 12:35:35;;;;;;;41.83;23.27;;;;;;;-143.37;100.00;65745.06;5092435;28;20262;-70
2021/11/01 12:38:08;;;;;;;39.80;22.30;;;;;;;-143.37;100.00;65745.06;5090995;28;20692;-71
2021/11/01 12:40:58;;;;;;;37.23;23.07;;;;;;;-143.37;100.00;65745.06;5091704;28;20287;-70
2021/11/01 12:43:54;;;;;;;40.47;22.47;;;;;;;-143.37;100.00;65745.06;5090745;28;20235;-70
2021/11/01 12:46:47;;;;;;;35.60;21.30;;;;;;;-143.37;100.00;65745.06;5088195;28;20225;-68
2021/11/01 12:57:33;;;;;;;39.20;22.17;;;;;;;-143.37;100.00;65745.06;5071923;28;20201;-70
2021/11/01 13:00:00;;;;;;;32.97;19.20;;;;;;;-143.37;100.00;65745.06;5071255;28;20244;-70
2021/11/01 13:02:27;;;;;;;31.53;19.23;;;;;;;-143.37;100.00;65745.06;5070469;28;20244;-70
2021/11/01 13:04:56;;;;;;;29.23;17.07;;;;;;;-143.37;100.00;65745.06;5071595;28;20225;-70
2021/11/01 13:10:06;;;;;;;35.23;20.03;;;;;;;-143.37;100.00;65745.06;5071278;28;20208;-70
2021/11/01 13:20:23;;;;;;;26.60;16.50;;;;;;;-143.37;100.00;65745.06;5070765;28;20300;-68
2021/11/01 13:22:54;;;;;;;24.80;15.47;;;;;;;-143.37;100.00;65745.06;5070267;28;20262;-69
2021/11/01 13:25:31;;;;;;;22.87;13.53;;;;;;;-143.37;100.00;65745.06;5077425;28;20724;-69
2021/11/01 13:28:46;;;;;;;24.53;14.63;;;;;;;-143.37;100.00;65745.06;5091418;28;20316;-68
2021/11/01 13:37:37;;;;;;;24.83;13.93;;;;;;;-143.37;100.00;65745.06;5095767;28;20251;-69
2021/11/01 13:40:08;;;;;;;22.77;12.83;;;;;;;-143.37;100.00;65745.06;5091333;28;20291;-68
2021/11/01 13:42:36;;;;;;;19.60;11.57;;;;;;;-143.37;100.00;65745.06;5091720;28;20207;-68
2021/11/01 13:45:12;;;;;;;19.17;10.77;;;;;;;-143.37;100.00;65745.06;5091917;28;20224;-69
2021/11/01 13:47:43;;;;;;;17.23;10.87;;;;;;;-143.37;100.00;65745.06;5077573;28;20221;-69
2021/11/01 13:50:10;;;;;;;17.60;11.27;;;;;;;-143.37;100.00;65745.06;5069576;28;20205;-69
2021/11/01 13:52:41;;;;;;;20.03;11.13;;;;;;;-143.37;100.00;65745.06;5071325;28;20713;-69
2021/11/01 13:55:20;;;;;;;17.43;10.10;;;;;;;-143.37;100.00;65745.06;5071293;28;20316;-69
2021/11/01 13:57:51;;;;;;;17.10;9.10;;;;;;;-143.37;100.00;65745.06;5057694;28;20279;-69
2021/11/01 14:00:30;;;;;;;16.77;9.07;;;;;;;-143.37;100.00;65745.06;5090788;28;20238;-70
2021/11/01 14:03:07;;;;;;;17.30;9.67;;;;;;;-143.37;100.00;65745.06;5096292;28;20210;-70
2021/11/01 14:11:54;;;;;;;16.73;9.30;;;;;;;-143.37;100.00;65745.06;5083597;28;20215;-69
2021/11/01 14:14:38;;;;;;;15.67;9.00;;;;;;;-143.37;100.00;65745.06;5084644;28;20231;-70
2021/11/01 14:31:12;;;;;;;13.30;6.90;;;;;;;-143.37;100.00;65745.06;5089811;28;20204;-69
2021/11/01 15:19:19;;;;;;;8.90;4.37;;;;;;;-143.37;100.00;65745.06;5110084;28;20251;-71
2021/11/01 16:18:15;;;;;;;4.13;2.23;;;;;;;-143.37;100.00;65745.06;5082593;28;20197;-69
2021/11/01 16:20:47;;;;;;;3.87;2.47;;;;;;;-143.37;100.00;65745.06;5070816;28;20285;-70
2021/11/01 16:26:02;;;;;;;3.93;2.27;;;;;;;-143.37;100.00;65745.06;5083485;28;20291;-70
2021/11/01 16:28:32;;;;;;;4.37;1.90;;;;;;;-143.37;100.00;65745.06;5090880;28;20255;-69
2021/11/01 16:33:40;;;;;;;2.57;1.50;;;;;;;-143.37;100.00;65745.06;5091832;28;20240;-70
2021/11/01 16:36:39;;;;;;;3.57;1.80;;;;;;;-143.37;100.00;65745.06;5091939;28;20661;-70
2021/11/01 16:39:06;;;;;;;3.70;1.63;;;;;;;-143.37;100.00;65745.06;5091822;28;20291;-71
2021/11/01 16:41:34;;;;;;;6.30;2.43;;;;;;;-143.37;100.00;65745.06;5090781;28;20216;-71
2021/11/01 16:44:12;;;;;;;3.27;1.80;;;;;;;-143.37;100.00;65745.06;5091565;28;20232;-72
2021/11/01 16:46:38;;;;;;;4.70;2.13;;;;;;;-143.37;100.00;65745.06;5085931;28;20215;-71
2021/11/01 16:49:06;;;;;;;2.97;1.63;;;;;;;-143.37;100.00;65745.06;5070538;28;20205;-70
2021/11/01 16:51:34;;;;;;;4.80;1.97;;;;;;;-143.37;100.00;65745.06;5070523;28;20652;-71
2021/11/01 16:54:00;;;;;;;5.30;2.20;;;;;;;-143.37;100.00;65745.06;5071108;28;20264;-71
2021/11/01 16:59:42;;;;;;;4.10;2.00;;;;;;;-143.37;100.00;65745.06;5086293;28;20207;-71
2021/11/01 17:04:36;;;;;;;3.80;2.20;;;;;;;-143.37;100.00;65745.06;5090745;28;20224;-72
2021/11/01 17:07:09;;;;;;;4.43;2.00;;;;;;;-143.37;100.00;65745.06;5091482;28;20311;-69
2021/11/01 17:23:33;;;;;;;5.73;1.60;;;;;;;-143.37;100.00;65745.06;5072188;28;20701;-68
2021/11/01 17:26:05;;;;;;;1.57;1.27;;;;;;;-143.37;100.00;65745.06;5082188;28;20652;-69
2021/11/01 17:36:54;;;;;;;6.27;2.13;;;;;;;-143.37;100.00;65745.06;5091264;28;20212;-68
2021/11/01 18:41:35;;;;;;;2.90;2.00;;;;;;;-143.37;100.00;65745.06;5075956;28;20197;-71
2021/11/01 18:52:11;;;;;;;3.40;2.00;;;;;;;-143.37;100.00;65745.06;5093939;28;20287;-72
2021/11/01 18:54:44;;;;;;;3.90;2.10;;;;;;;-143.37;100.00;65745.06;5092899;28;20315;-71
2021/11/01 18:57:12;;;;;;;1.90;1.43;;;;;;;-143.37;100.00;65745.06;5073235;28;20639;-71
2021/11/01 18:59:40;;;;;;;3.83;1.90;;;;;;;-143.37;100.00;65745.06;5088360;28;20561;-69
2021/11/01 19:05:31;;;;;;;3.23;1.60;;;;;;;-143.37;100.00;65745.06;5102347;28;20232;-71
2021/11/01 19:08:03;;;;;;;2.83;1.37;;;;;;;-143.37;100.00;65745.06;5096730;28;20262;-70
2021/11/01 20:06:15;;;;;;;3.47;2.00;;;;;;;-143.37;100.00;65745.06;5076845;28;20215;-69
2021/11/01 20:14:40;;;;;;;4.13;2.47;;;;;;;-143.37;100.00;65745.06;5083032;28;20263;-68
2021/11/01 20:17:25;;;;;;;2.60;1.67;;;;;;;-143.37;100.00;65745.06;5092205;28;20665;-68
2021/11/01 21:27:02;;;;;;;4.07;1.67;;;;;;;-143.37;100.00;65745.06;5090741;28;20201;-70
2021/11/01 21:29:33;;;;;;;4.03;1.73;;;;;;;-143.37;100.00;65745.06;5090532;28;20319;-70
2021/11/01 21:32:00;;;;;;;3.33;1.87;;;;;;;-143.37;100.00;65745.06;5091305;28;20227;-71
2021/11/01 21:34:38;;;;;;;2.13;1.87;;;;;;;-143.37;100.00;65745.06;5091156;28;20232;-69
2021/11/01 21:37:07;;;;;;;3.60;2.00;;;;;;;-143.37;100.00;65745.06;5091108;28;20622;-70
2021/11/01 21:39:34;;;;;;;3.03;1.73;;;;;;;-143.37;100.00;65745.06;5090247;28;20219;-69
2021/11/01 21:42:02;;;;;;;3.17;1.90;;;;;;;-143.37;100.00;65745.06;5091154;28;20211;-69
2021/11/01 21:44:37;;;;;;;3.33;2.10;;;;;;;-143.37;100.00;65745.06;5090216;28;20662;-69
2021/11/01 21:47:04;;;;;;;1.77;1.47;;;;;;;-143.37;100.00;65745.06;5091383;28;20200;-69
2021/11/01 21:49:30;;;;;;;3.10;1.93;;;;;;;-143.37;100.00;65745.06;5090170;28;20285;-70
2021/11/01 21:51:57;;;;;;;2.60;2.10;;;;;;;-143.37;100.00;65745.06;5094803;28;20763;-69
2021/11/01 21:54:42;;;;;;;4.30;2.00;;;;;;;-143.37;100.00;65745.06;5094021;28;20232;-70
2021/11/01 21:59:55;;;;;;;2.60;2.00;;;;;;;-143.37;100.00;65745.06;5093206;28;20236;-70
2021/11/01 22:22:04;;;;;;;2.93;1.90;;;;;;;-143.37;100.00;65745.06;5096851;28;20281;-70
2021/11/01 22:43:08;;;;;;;5.40;3.20;;;;;;;-143.37;100.00;65745.06;5086640;28;20292;-70
2021/11/01 22:46:05;;;;;;;4.60;2.97;;;;;;;-143.37;100.00;65745.06;5095199;28;20200;-69
2021/11/01 22:48:45;;;;;;;4.33;2.77;;;;;;;-143.37;100.00;65745.06;5076640;28;20283;-70
2021/11/01 22:56:52;;;;;;;5.67;3.67;;;;;;;-143.37;100.00;65745.06;5084294;28;20200;-71
2021/11/01 22:59:23;;;;;;;4.40;3.20;;;;;;;-143.37;100.00;65745.06;5066180;28;20200;-70
2021/11/01 23:01:49;;;;;;;5.40;3.23;;;;;;;-143.37;100.00;65745.06;5086537;28;20790;-69
2021/11/01 23:31:37;;;;;;;5.40;3.53;;;;;;;-143.37;100.00;65745.06;5107805;28;20257;-71
2021/11/01 23:34:10;;;;;;;4.87;3.37;;;;;;;-143.37;100.00;65745.06;5100099;28;20236;-71
2021/11/01 23:36:38;;;;;;;5.77;3.93;;;;;;;-143.37;100.00;65745.06;5095389;28;20212;-71
2021/11/01 23:39:08;;;;;;;5.07;3.57;;;;;;;-143.37;100.00;65745.06;5094563;28;20208;-71
2021/11/01 23:41:36;;;;;;;5.73;3.40;;;;;;;-143.37;100.00;65745.06;5092643;28;20209;-71
2021/11/01 23:44:03;;;;;;;5.20;3.30;;;;;;;-143.37;100.00;65745.06;5094086;28;20270;-70
2021/11/01 23:46:30;;;;;;;4.47;3.27;;;;;;;-143.37;100.00;65745.06;5088917;28;20198;-69
2021/11/01 23:48:57;;;;;;;6.13;3.57;;;;;;;-143.37;100.00;65745.06;5073555;28;20229;-71
2021/11/01 23:51:31;;;;;;;5.00;4.07;;;;;;;-143.37;100.00;65745.06;5072962;28;20303;-69
2021/11/01 23:56:27;;;;;;;6.43;4.33;;;;;;;-143.37;100.00;65745.06;5073281;28;20689;-71
2021/11/01 23:58:54;;;;;;;5.30;4.00;;;;;;;-143.37;100.00;65745.06;5085375;28;20661;-70
